createdAt,value
2022-10-09T00:01:32.420Z,12.23
2022-10-09T00:04:01.485Z,12.22
2022-10-09T00:06:33.969Z,12.22
2022-10-09T00:09:04.147Z,12.21
2022-10-09T00:11:34.196Z,12.21
2022-10-09T00:14:03.865Z,12.20
2022-10-09T00:16:32.770Z,12.19
2022-10-09T00:19:01.423Z,12.18
2022-10-09T00:21:33.669Z,12.18
2022-10-09T00:24:03.846Z,12.17
2022-10-09T00:26:32.851Z,12.17
2022-10-09T00:29:01.486Z,12.15
2022-10-09T00:31:30.334Z,12.12
2022-10-09T00:33:58.853Z,12.09
2022-10-09T00:36:27.651Z,12.05
2022-10-09T00:38:56.539Z,12.02
2022-10-09T00:41:31.880Z,11.98
2022-10-09T00:44:42.544Z,11.94
2022-10-09T00:47:40.710Z,11.91
2022-10-09T00:50:39.713Z,11.87
2022-10-09T00:53:10.983Z,11.85
2022-10-09T00:55:40.150Z,11.84
2022-10-09T00:58:09.756Z,11.85
2022-10-09T01:00:38.030Z,11.87
2022-10-09T01:03:06.663Z,11.90
2022-10-09T01:05:43.991Z,11.93
2022-10-09T01:08:25.407Z,11.99
2022-10-09T01:11:09.944Z,12.04
2022-10-09T01:13:55.021Z,12.09
2022-10-09T01:16:29.794Z,12.15
2022-10-09T01:19:53.437Z,12.18
2022-10-09T01:22:36.482Z,12.21
2022-10-09T01:25:33.488Z,12.20
2022-10-09T01:28:04.609Z,12.19
2022-10-09T01:30:35.421Z,12.17
2022-10-09T01:33:05.668Z,12.15
2022-10-09T01:35:35.037Z,12.12
2022-10-09T01:38:04.758Z,12.08
2022-10-09T01:40:33.822Z,12.04
2022-10-09T01:43:02.376Z,12.00
2022-10-09T01:45:45.882Z,11.97
2022-10-09T01:48:25.250Z,11.94
2022-10-09T01:51:02.662Z,11.91
2022-10-09T01:53:33.683Z,11.88
2022-10-09T01:56:24.685Z,11.85
2022-10-09T01:59:01.353Z,11.83
2022-10-09T02:01:34.357Z,11.83
2022-10-09T02:04:08.580Z,11.82
2022-10-09T02:06:40.477Z,11.82
2022-10-09T02:09:15.759Z,11.83
2022-10-09T02:11:48.641Z,11.82
2022-10-09T02:14:17.144Z,11.81
2022-10-09T02:17:00.349Z,11.82
2022-10-09T02:19:37.231Z,11.83
2022-10-09T02:22:18.617Z,11.85
2022-10-09T02:24:47.776Z,11.84
2022-10-09T02:27:18.937Z,11.75
2022-10-09T02:29:48.457Z,11.67
2022-10-09T02:32:16.959Z,11.62
2022-10-09T02:34:45.630Z,11.59
2022-10-09T02:37:15.115Z,11.58
2022-10-09T02:39:44.020Z,11.58
2022-10-09T02:42:12.315Z,11.56
2022-10-09T02:44:40.680Z,11.52
2022-10-09T02:47:09.118Z,11.43
2022-10-09T02:49:37.731Z,11.34
2022-10-09T02:52:06.134Z,11.18
2022-10-09T02:54:34.515Z,11.04
2022-10-09T02:57:03.077Z,10.91
2022-10-09T02:59:32.402Z,10.82
2022-10-09T03:02:00.886Z,10.77
2022-10-09T03:04:29.368Z,10.73
2022-10-09T03:06:58.760Z,10.70
2022-10-09T03:09:30.295Z,10.62
2022-10-09T03:12:01.967Z,10.50
2022-10-09T03:14:30.347Z,10.45
2022-10-09T03:16:58.827Z,10.39
2022-10-09T03:19:27.206Z,10.37
2022-10-09T03:21:55.461Z,10.37
2022-10-09T03:24:23.898Z,10.27
2022-10-09T03:26:52.545Z,10.13
2022-10-09T03:29:21.046Z,10.10
2022-10-09T03:31:52.870Z,10.08
2022-10-09T03:34:21.596Z,10.16
2022-10-09T03:36:50.476Z,10.20
2022-10-09T03:39:18.840Z,10.16
2022-10-09T03:41:47.248Z,9.98
2022-10-09T03:44:15.494Z,9.95
2022-10-09T03:46:43.835Z,9.95
2022-10-09T03:49:12.459Z,9.97
2022-10-09T03:51:40.708Z,9.99
2022-10-09T03:54:09.215Z,10.00
2022-10-09T03:56:37.578Z,10.01
2022-10-09T03:59:07.809Z,10.02
2022-10-09T04:01:36.709Z,10.03
2022-10-09T04:04:04.975Z,10.01
2022-10-09T04:06:33.352Z,10.04
2022-10-09T04:09:01.941Z,10.07
2022-10-09T04:11:30.308Z,10.10
2022-10-09T04:13:58.754Z,10.12
2022-10-09T04:16:27.245Z,10.15
2022-10-09T04:18:55.772Z,10.14
2022-10-09T04:21:24.139Z,10.14
2022-10-09T04:23:53.016Z,10.09
2022-10-09T04:26:21.490Z,9.95
2022-10-09T04:28:50.027Z,9.86
2022-10-09T04:31:18.507Z,9.80
2022-10-09T04:33:47.029Z,9.82
2022-10-09T04:36:15.620Z,9.78
2022-10-09T04:38:43.900Z,9.76
2022-10-09T04:41:12.239Z,9.77
2022-10-09T04:43:42.517Z,9.76
2022-10-09T04:46:14.306Z,9.74
2022-10-09T04:48:46.423Z,9.79
2022-10-09T04:51:16.783Z,9.85
2022-10-09T04:53:45.692Z,9.93
2022-10-09T04:56:18.627Z,10.02
2022-10-09T04:58:48.224Z,10.10
2022-10-09T05:01:27.492Z,10.17
2022-10-09T05:03:56.545Z,10.24
2022-10-09T05:06:25.350Z,10.31
2022-10-09T05:08:54.517Z,10.30
2022-10-09T05:11:24.869Z,10.29
2022-10-09T05:13:56.166Z,10.29
2022-10-09T05:16:28.455Z,10.32
2022-10-09T05:18:59.030Z,10.34
2022-10-09T05:21:28.894Z,10.46
2022-10-09T05:23:58.068Z,10.54
2022-10-09T05:26:27.867Z,10.63
2022-10-09T05:28:56.128Z,10.71
2022-10-09T05:31:28.133Z,10.77
2022-10-09T05:34:00.334Z,10.76
2022-10-09T05:36:29.111Z,10.76
2022-10-09T05:38:58.376Z,10.75
2022-10-09T05:41:28.298Z,10.71
2022-10-09T05:44:02.352Z,10.72
2022-10-09T05:46:31.240Z,10.83
2022-10-09T05:49:05.706Z,10.92
2022-10-09T05:51:37.734Z,10.95
2022-10-09T05:54:07.149Z,10.97
2022-10-09T05:56:39.508Z,11.01
2022-10-09T05:59:15.345Z,11.05
2022-10-09T06:01:46.930Z,11.11
2022-10-09T06:04:18.982Z,11.18
2022-10-09T06:06:49.626Z,11.24
2022-10-09T06:09:23.150Z,11.28
2022-10-09T06:11:53.981Z,11.32
2022-10-09T06:14:23.457Z,11.36
2022-10-09T06:16:51.901Z,11.45
2022-10-09T06:19:21.043Z,11.43
2022-10-09T06:21:49.488Z,11.37
2022-10-09T06:24:28.852Z,11.31
2022-10-09T06:26:58.464Z,11.29
2022-10-09T06:29:26.925Z,11.23
2022-10-09T06:31:55.536Z,11.28
2022-10-09T06:34:25.061Z,11.33
2022-10-09T06:36:53.417Z,11.30
2022-10-09T06:39:22.795Z,11.22
2022-10-09T06:41:51.172Z,11.32
2022-10-09T06:44:31.354Z,11.41
2022-10-09T06:46:59.825Z,11.52
2022-10-09T06:49:28.184Z,11.64
2022-10-09T06:51:56.479Z,11.75
2022-10-09T06:54:24.897Z,11.82
2022-10-09T06:56:55.898Z,11.89
2022-10-09T06:59:24.138Z,11.96
2022-10-09T07:01:52.789Z,12.05
2022-10-09T07:04:21.832Z,12.17
2022-10-09T07:06:50.126Z,12.29
2022-10-09T07:09:18.597Z,12.34
2022-10-09T07:11:49.527Z,12.51
2022-10-09T07:14:18.658Z,12.59
2022-10-09T07:16:49.273Z,12.75
2022-10-09T07:19:19.374Z,12.82
2022-10-09T07:21:49.871Z,12.88
2022-10-09T07:24:20.751Z,12.92
2022-10-09T07:26:49.753Z,12.96
2022-10-09T07:29:20.042Z,12.99
2022-10-09T07:31:50.044Z,13.00
2022-10-09T07:34:18.465Z,12.99
2022-10-09T07:36:46.792Z,13.08
2022-10-09T07:39:19.523Z,13.18
2022-10-09T07:41:51.926Z,13.23
2022-10-09T07:44:20.177Z,13.29
2022-10-09T07:46:51.681Z,13.34
2022-10-09T07:49:20.366Z,13.41
2022-10-09T07:51:48.663Z,13.47
2022-10-09T07:54:17.046Z,13.52
2022-10-09T07:56:45.338Z,13.59
2022-10-09T07:59:16.161Z,13.65
2022-10-09T08:01:44.762Z,13.70
2022-10-09T08:04:13.140Z,13.74
2022-10-09T08:06:41.831Z,13.79
2022-10-09T08:09:10.323Z,13.83
2022-10-09T08:11:41.915Z,13.85
2022-10-09T08:14:18.183Z,13.91
2022-10-09T08:16:48.651Z,13.96
2022-10-09T08:19:16.908Z,13.98
2022-10-09T08:21:45.590Z,14.01
2022-10-09T08:24:14.203Z,14.03
2022-10-09T08:26:44.306Z,14.08
2022-10-09T08:29:14.195Z,14.14
2022-10-09T08:31:42.740Z,14.19
2022-10-09T08:34:12.253Z,14.26
2022-10-09T08:36:40.463Z,14.34
2022-10-09T08:39:08.753Z,14.42
2022-10-09T08:41:52.362Z,14.47
2022-10-09T08:44:40.106Z,14.53
2022-10-09T08:47:37.142Z,14.59
2022-10-09T08:50:23.339Z,14.70
2022-10-09T08:53:03.730Z,14.77
2022-10-09T08:55:41.678Z,14.85
2022-10-09T08:58:15.855Z,14.95
2022-10-09T09:00:50.540Z,15.05
2022-10-09T09:03:36.812Z,15.15
2022-10-09T09:06:33.012Z,15.24
2022-10-09T09:09:10.356Z,15.32
2022-10-09T09:12:15.169Z,15.41
2022-10-09T09:15:22.031Z,15.48
2022-10-09T09:18:04.541Z,15.56
2022-10-09T09:20:56.646Z,15.62
2022-10-09T09:23:40.741Z,15.68
2022-10-09T09:26:27.508Z,15.75
2022-10-09T09:29:02.656Z,15.84
2022-10-09T09:31:37.351Z,15.92
2022-10-09T09:34:44.521Z,15.97
2022-10-09T09:37:13.747Z,16.02
2022-10-09T09:42:31.702Z,16.08
2022-10-09T09:45:04.963Z,16.11
2022-10-09T09:47:47.017Z,16.18
2022-10-09T09:50:42.230Z,16.25
2022-10-09T09:53:37.014Z,16.28
2022-10-09T09:56:06.054Z,16.31
2022-10-09T09:58:38.717Z,16.32
2022-10-09T10:01:21.930Z,16.31
2022-10-09T10:03:54.715Z,16.32
2022-10-09T10:06:44.733Z,16.31
2022-10-09T10:09:19.298Z,16.31
2022-10-09T10:12:03.611Z,16.31
2022-10-09T10:14:34.262Z,16.29
2022-10-09T10:17:02.683Z,16.28
2022-10-09T10:19:35.753Z,16.29
2022-10-09T10:22:21.938Z,16.29
2022-10-09T10:24:52.597Z,16.26
2022-10-09T10:27:41.014Z,16.27
2022-10-09T10:30:16.059Z,16.29
2022-10-09T10:33:17.397Z,16.29
2022-10-09T10:35:49.787Z,16.34
2022-10-09T10:38:31.263Z,16.41
2022-10-09T10:41:36.705Z,16.51
2022-10-09T10:44:26.297Z,16.59
2022-10-09T10:47:04.021Z,16.61
2022-10-09T10:49:33.927Z,16.64
2022-10-09T10:52:23.465Z,16.66
2022-10-09T10:55:11.640Z,16.68
2022-10-09T10:58:06.405Z,16.74
2022-10-09T11:00:44.135Z,16.85
2022-10-09T11:03:52.840Z,17.01
2022-10-09T11:06:28.994Z,17.15
2022-10-09T11:09:07.369Z,17.26
2022-10-09T11:11:50.745Z,17.31
2022-10-09T11:14:43.026Z,17.45
2022-10-09T11:17:26.818Z,17.58
2022-10-09T11:20:27.770Z,17.71
2022-10-09T11:23:42.043Z,17.77
2022-10-09T11:26:36.955Z,17.80
2022-10-09T11:29:18.394Z,17.83
2022-10-09T11:31:57.185Z,17.83
2022-10-09T11:34:33.927Z,17.77
2022-10-09T11:37:07.218Z,17.84
2022-10-09T11:39:37.683Z,17.90
2022-10-09T11:42:07.177Z,17.95
2022-10-09T11:44:40.772Z,17.98
2022-10-09T11:47:30.121Z,18.01
2022-10-09T11:50:37.786Z,18.05
2022-10-09T11:53:19.776Z,18.08
2022-10-09T11:55:48.774Z,18.04
2022-10-09T11:58:20.241Z,17.93
2022-10-09T12:00:55.452Z,17.92
2022-10-09T12:03:34.287Z,17.90
2022-10-09T12:06:17.116Z,17.84
2022-10-09T12:09:06.272Z,17.82
2022-10-09T12:11:35.037Z,17.81
2022-10-09T12:14:08.487Z,17.72
2022-10-09T12:16:46.086Z,17.68
2022-10-09T12:19:31.543Z,17.64
2022-10-09T12:22:01.161Z,17.57
2022-10-09T12:24:48.371Z,17.53
2022-10-09T12:27:26.986Z,17.51
2022-10-09T12:30:05.321Z,17.46
2022-10-09T12:32:39.361Z,17.46
2022-10-09T12:35:47.986Z,17.40
2022-10-09T12:38:34.229Z,17.33
2022-10-09T12:41:07.273Z,17.35
2022-10-09T12:43:36.545Z,17.35
2022-10-09T12:46:04.930Z,17.35
2022-10-09T12:48:40.646Z,17.30
2022-10-09T12:51:17.407Z,17.15
2022-10-09T12:53:49.199Z,16.88
2022-10-09T12:56:24.734Z,16.68
2022-10-09T12:58:53.920Z,16.58
2022-10-09T13:01:22.820Z,16.49
2022-10-09T13:04:05.885Z,16.44
2022-10-09T13:06:48.140Z,16.35
2022-10-09T13:09:35.152Z,16.19
2022-10-09T13:12:27.756Z,16.08
2022-10-09T13:15:06.210Z,15.97
2022-10-09T13:17:41.803Z,15.86
2022-10-09T13:20:13.014Z,15.71
2022-10-09T13:22:42.344Z,15.56
2022-10-09T13:25:10.630Z,15.45
2022-10-09T13:27:40.130Z,15.44
2022-10-09T13:30:12.156Z,15.41
2022-10-09T13:32:40.530Z,15.39
2022-10-09T13:35:09.543Z,15.38
2022-10-09T13:37:37.813Z,15.35
2022-10-09T13:40:07.018Z,15.27
2022-10-09T13:42:37.352Z,15.18
2022-10-09T13:45:06.819Z,15.16
2022-10-09T13:47:35.094Z,15.12
2022-10-09T13:50:04.551Z,15.07
2022-10-09T13:52:32.909Z,15.04
2022-10-09T13:55:01.346Z,15.00
2022-10-09T13:57:29.740Z,14.93
2022-10-09T13:59:57.994Z,14.92
2022-10-09T14:02:26.589Z,14.89
2022-10-09T14:04:54.955Z,14.90
2022-10-09T14:07:23.651Z,14.91
2022-10-09T14:09:52.040Z,14.94
2022-10-09T14:12:20.306Z,14.91
2022-10-09T14:14:48.772Z,14.93
2022-10-09T14:17:16.883Z,14.95
2022-10-09T14:19:45.249Z,14.95
2022-10-09T14:22:13.701Z,14.92
2022-10-09T14:24:42.698Z,14.93
2022-10-09T14:27:11.210Z,14.92
2022-10-09T14:29:39.785Z,14.94
2022-10-09T14:32:08.178Z,14.91
2022-10-09T14:34:36.402Z,14.89
2022-10-09T14:37:13.610Z,14.79
2022-10-09T14:39:47.634Z,14.89
2022-10-09T14:42:15.931Z,14.87
2022-10-09T14:44:44.302Z,14.87
2022-10-09T14:47:12.644Z,14.87
2022-10-09T14:49:40.944Z,14.90
2022-10-09T14:52:09.182Z,14.89
2022-10-09T14:54:37.838Z,14.87
2022-10-09T14:57:06.286Z,14.77
2022-10-09T14:59:34.548Z,14.78
2022-10-09T15:02:02.936Z,14.78
2022-10-09T15:04:31.418Z,14.73
2022-10-09T15:06:59.900Z,14.76
2022-10-09T15:09:28.142Z,14.73
2022-10-09T15:11:57.361Z,14.80
2022-10-09T15:14:25.858Z,14.78
2022-10-09T15:16:54.117Z,14.75
2022-10-09T15:19:22.372Z,14.73
2022-10-09T15:21:51.080Z,14.69
2022-10-09T15:24:19.338Z,14.68
2022-10-09T15:26:47.643Z,14.60
2022-10-09T15:29:16.013Z,14.59
2022-10-09T15:31:44.281Z,14.53
2022-10-09T15:34:18.718Z,14.47
2022-10-09T15:36:47.342Z,14.43
2022-10-09T15:39:15.743Z,14.31
2022-10-09T15:41:44.375Z,14.31
2022-10-09T15:44:20.822Z,14.26
2022-10-09T15:46:50.279Z,14.28
2022-10-09T15:49:18.776Z,14.30
2022-10-09T15:51:47.100Z,14.31
2022-10-09T15:54:15.761Z,14.34
2022-10-09T15:56:44.058Z,14.34
2022-10-09T15:59:14.277Z,14.34
2022-10-09T16:01:44.003Z,14.35
2022-10-09T16:04:12.432Z,14.34
2022-10-09T16:06:40.741Z,14.34
2022-10-09T16:09:09.309Z,14.37
2022-10-09T16:11:37.663Z,14.37
2022-10-09T16:14:06.042Z,14.30
2022-10-09T16:16:34.358Z,14.30
2022-10-09T16:19:05.266Z,14.28
2022-10-09T16:21:34.195Z,14.21
2022-10-09T16:24:02.534Z,14.25
2022-10-09T16:26:30.924Z,14.23
2022-10-09T16:29:00.912Z,14.23
2022-10-09T16:31:35.303Z,14.23
2022-10-09T16:34:07.138Z,14.16
2022-10-09T16:36:35.517Z,14.10
2022-10-09T16:39:04.082Z,14.10
2022-10-09T16:41:32.581Z,14.09
2022-10-09T16:44:03.089Z,14.06
2022-10-09T16:49:15.224Z,13.98
2022-10-09T16:51:44.972Z,13.93
2022-10-09T16:54:13.240Z,13.90
2022-10-09T16:56:41.877Z,13.82
2022-10-09T16:59:13.645Z,13.81
2022-10-09T17:01:46.206Z,13.77
2022-10-09T17:04:15.104Z,13.76
2022-10-09T17:06:44.697Z,13.73
2022-10-09T17:09:14.636Z,13.70
2022-10-09T17:11:43.436Z,13.66
2022-10-09T17:14:12.505Z,13.62
2022-10-09T17:16:43.019Z,13.62
2022-10-09T17:19:11.824Z,13.59
2022-10-09T17:21:40.225Z,13.56
2022-10-09T17:24:09.270Z,13.55
2022-10-09T17:26:37.684Z,13.47
2022-10-09T17:29:06.065Z,13.45
2022-10-09T17:31:35.017Z,13.46
2022-10-09T17:34:05.085Z,13.45
2022-10-09T17:36:37.210Z,13.48
2022-10-09T17:39:08.992Z,13.51
2022-10-09T17:41:37.350Z,13.51
2022-10-09T17:44:06.612Z,13.46
2022-10-09T17:46:34.961Z,13.44
2022-10-09T17:49:04.419Z,13.40
2022-10-09T17:51:37.134Z,13.41
2022-10-09T17:54:13.702Z,13.34
2022-10-09T17:56:43.108Z,13.35
2022-10-09T17:59:12.505Z,13.38
2022-10-09T18:01:40.810Z,13.29
2022-10-09T18:04:15.605Z,13.27
2022-10-09T18:06:44.299Z,13.21
2022-10-09T18:09:12.624Z,13.20
2022-10-09T18:11:40.890Z,13.17
2022-10-09T18:14:10.054Z,13.15
2022-10-09T18:16:39.786Z,13.10
2022-10-09T18:19:13.782Z,13.07
2022-10-09T18:21:45.723Z,12.99
2022-10-09T18:24:15.330Z,12.99
2022-10-09T18:26:44.689Z,12.98
2022-10-09T18:29:13.322Z,12.96
2022-10-09T18:31:41.900Z,12.93
2022-10-09T18:34:11.002Z,12.92
2022-10-09T18:36:39.684Z,12.90
2022-10-09T18:39:12.381Z,12.89
2022-10-09T18:41:41.758Z,12.88
2022-10-09T18:44:17.629Z,12.84
2022-10-09T18:46:55.760Z,12.89
2022-10-09T18:49:30.550Z,12.87
2022-10-09T18:52:02.866Z,12.86
2022-10-09T18:54:31.607Z,12.85
2022-10-09T18:57:00.014Z,12.84
2022-10-09T18:59:29.615Z,12.82
2022-10-09T19:01:57.993Z,12.80
2022-10-09T19:04:26.371Z,12.77
2022-10-09T19:06:55.002Z,12.76
2022-10-09T19:09:23.250Z,12.74
2022-10-09T19:11:52.818Z,12.72
2022-10-09T19:14:21.615Z,12.67
2022-10-09T19:16:49.903Z,12.62
2022-10-09T19:19:19.172Z,12.59
2022-10-09T19:21:47.586Z,12.55
2022-10-09T19:24:15.943Z,12.48
2022-10-09T19:26:44.326Z,12.46
2022-10-09T19:29:12.659Z,12.41
2022-10-09T19:31:41.148Z,12.38
2022-10-09T19:34:09.392Z,12.37
2022-10-09T19:36:37.817Z,12.35
2022-10-09T19:39:08.875Z,12.31
2022-10-09T19:41:39.010Z,12.28
2022-10-09T19:44:07.384Z,12.24
2022-10-09T19:46:40.045Z,12.20
2022-10-09T19:49:09.559Z,12.12
2022-10-09T19:51:38.150Z,12.03
2022-10-09T19:54:08.662Z,11.97
2022-10-09T19:56:38.184Z,11.95
2022-10-09T19:59:08.690Z,11.82
2022-10-09T20:01:40.235Z,11.79
2022-10-09T20:04:10.989Z,11.75
2022-10-09T20:06:41.750Z,11.72
2022-10-09T20:09:12.367Z,11.72
2022-10-09T20:11:41.197Z,11.71
2022-10-09T20:14:10.053Z,11.71
2022-10-09T20:16:39.089Z,11.70
2022-10-09T20:19:07.521Z,11.73
2022-10-09T20:21:35.898Z,11.77
2022-10-09T20:24:06.312Z,11.80
2022-10-09T20:26:36.794Z,11.81
2022-10-09T20:29:07.594Z,11.84
2022-10-09T20:31:35.967Z,11.83
2022-10-09T20:34:04.651Z,11.83
2022-10-09T20:36:35.890Z,11.85
2022-10-09T20:39:08.975Z,11.85
2022-10-09T20:41:40.617Z,11.80
2022-10-09T20:44:11.071Z,11.77
2022-10-09T20:46:40.709Z,11.81
2022-10-09T20:49:14.016Z,11.80
2022-10-09T20:51:42.657Z,11.76
2022-10-09T20:54:17.972Z,11.76
2022-10-09T20:56:47.296Z,11.75
2022-10-09T20:59:16.911Z,11.74
2022-10-09T21:01:45.838Z,11.71
2022-10-09T21:04:15.002Z,11.68
2022-10-09T21:06:43.261Z,11.62
2022-10-09T21:09:11.748Z,11.61
2022-10-09T21:11:41.672Z,11.58
2022-10-09T21:14:10.123Z,11.54
2022-10-09T21:16:38.727Z,11.51
2022-10-09T21:19:07.148Z,11.49
2022-10-09T21:21:35.358Z,11.47
2022-10-09T21:24:04.583Z,11.42
2022-10-09T21:26:36.382Z,11.38
2022-10-09T21:29:05.497Z,11.36
2022-10-09T21:31:34.377Z,11.35
2022-10-09T21:34:02.942Z,11.35
2022-10-09T21:37:08.490Z,11.31
2022-10-09T21:39:31.757Z,11.26
2022-10-09T21:42:00.193Z,11.25
2022-10-09T21:44:28.672Z,11.26
2022-10-09T21:46:57.052Z,11.24
2022-10-09T21:49:28.309Z,11.22
2022-10-09T21:51:57.125Z,11.22
2022-10-09T21:54:25.564Z,11.19
2022-10-09T21:56:53.887Z,11.15
2022-10-09T21:59:22.430Z,11.12
2022-10-09T22:01:50.599Z,11.07
2022-10-09T22:04:19.590Z,11.07
2022-10-09T22:06:47.854Z,10.99
2022-10-09T22:09:16.230Z,10.91
2022-10-09T22:11:45.149Z,10.90
2022-10-09T22:14:14.161Z,10.88
2022-10-09T22:16:42.508Z,10.87
2022-10-09T22:19:10.987Z,10.84
2022-10-09T22:21:39.718Z,10.81
2022-10-09T22:24:08.347Z,10.81
2022-10-09T22:26:36.738Z,10.77
2022-10-09T22:29:05.033Z,10.74
2022-10-09T22:31:33.433Z,10.70
2022-10-09T22:34:02.262Z,10.67
2022-10-09T22:36:33.147Z,10.67
2022-10-09T22:39:05.221Z,10.63
2022-10-09T22:41:34.529Z,10.62
2022-10-09T22:44:06.034Z,10.58
2022-10-09T22:46:41.417Z,10.53
2022-10-09T22:49:14.842Z,10.52
2022-10-09T22:51:44.792Z,10.52
2022-10-09T22:54:14.020Z,10.53
2022-10-09T22:56:45.422Z,10.51
2022-10-09T22:59:18.230Z,10.50
2022-10-09T23:01:57.137Z,10.49
2022-10-09T23:04:25.500Z,10.45
2022-10-09T23:06:59.617Z,10.44
2022-10-09T23:09:31.683Z,10.42
2022-10-09T23:12:00.489Z,10.37
2022-10-09T23:14:29.072Z,10.32
2022-10-09T23:16:57.446Z,10.28
2022-10-09T23:19:25.829Z,10.24
2022-10-09T23:21:54.103Z,10.22
2022-10-09T23:24:22.486Z,10.20
2022-10-09T23:26:52.087Z,10.20
2022-10-09T23:29:22.037Z,10.19
2022-10-09T23:31:53.601Z,10.14
2022-10-09T23:34:21.940Z,10.10
2022-10-09T23:36:50.209Z,10.06
2022-10-09T23:39:19.816Z,10.01
2022-10-09T23:41:48.057Z,9.95
2022-10-09T23:44:20.082Z,9.90
2022-10-09T23:46:52.019Z,9.85
2022-10-09T23:49:20.489Z,9.85
2022-10-09T23:51:48.861Z,9.85
2022-10-09T23:54:17.245Z,9.78
2022-10-09T23:56:45.825Z,9.72
2022-10-09T23:59:14.114Z,9.70
